createdAt,value
2018-10-03T00:00:21.412Z,73.11
2018-10-03T00:01:21.313Z,73.97
2018-10-03T00:02:21.231Z,73.59
2018-10-03T00:03:21.433Z,73.88
2018-10-03T00:04:21.022Z,73.88
2018-10-03T00:05:20.924Z,73.69
2018-10-03T00:06:20.830Z,73.59
2018-10-03T00:07:20.743Z,74.07
2018-10-03T00:08:20.628Z,73.97
2018-10-03T00:09:20.643Z,74.07
2018-10-03T00:10:20.435Z,74.26
2018-10-03T00:11:20.334Z,73.97
2018-10-03T00:12:20.255Z,74.44
2018-10-03T00:13:20.140Z,74.63
2018-10-03T00:14:20.045Z,74.63
2018-10-03T00:15:19.947Z,74.63
2018-10-03T00:16:19.950Z,74.54
2018-10-03T00:17:19.765Z,74.82
2018-10-03T00:18:19.654Z,74.63
2018-10-03T00:19:19.560Z,74.48
2018-10-03T00:20:19.459Z,74.73
2018-10-03T00:21:19.359Z,74.26
2018-10-03T00:22:19.270Z,74.54
2018-10-03T00:23:19.188Z,74.54
2018-10-03T00:24:19.067Z,74.26
2018-10-03T00:25:18.967Z,74.54
2018-10-03T00:26:18.876Z,74.67
2018-10-03T00:27:18.778Z,75.24
2018-10-03T00:28:18.696Z,75.05
2018-10-03T00:29:18.582Z,74.92
2018-10-03T00:30:18.605Z,75.11
2018-10-03T00:31:18.387Z,75.34
2018-10-03T00:32:18.292Z,75.72
2018-10-03T00:33:18.209Z,75.34
2018-10-03T00:34:18.095Z,75.43
2018-10-03T00:35:17.999Z,75.43
2018-10-03T00:36:17.904Z,75.43
2018-10-03T00:37:17.803Z,75.24
2018-10-03T00:38:17.722Z,75.05
2018-10-03T00:39:17.610Z,74.96
2018-10-03T00:40:17.511Z,75.05
2018-10-03T00:41:17.412Z,75.05
2018-10-03T00:42:17.322Z,75.34
2018-10-03T00:43:17.236Z,75.24
2018-10-03T00:44:17.120Z,75.53
2018-10-03T00:45:17.026Z,75.81
2018-10-03T00:46:16.929Z,75.43
2018-10-03T00:47:16.830Z,75.53
2018-10-03T00:48:16.756Z,75.43
2018-10-03T00:49:16.636Z,75.81
2018-10-03T00:50:16.543Z,76.20
2018-10-03T00:51:16.444Z,76.20
2018-10-03T00:52:16.345Z,75.91
2018-10-03T00:53:16.267Z,75.91
2018-10-03T00:54:16.151Z,75.91
2018-10-03T00:55:16.053Z,75.91
2018-10-03T00:56:15.957Z,75.81
2018-10-03T00:57:15.857Z,75.81
2018-10-03T00:58:15.785Z,75.91
2018-10-03T00:59:15.663Z,76.10
2018-10-03T01:00:15.568Z,76.96
2018-10-03T01:01:15.471Z,76.10
2018-10-03T01:02:15.374Z,76.96
2018-10-03T01:03:15.295Z,76.67
2018-10-03T01:04:15.178Z,76.67
2018-10-03T01:05:15.080Z,76.57
2018-10-03T01:06:14.984Z,76.57
2018-10-03T01:07:14.890Z,76.67
2018-10-03T01:08:14.804Z,76.96
2018-10-03T01:09:14.696Z,77.05
2018-10-03T01:10:14.597Z,76.96
2018-10-03T01:11:14.499Z,77.05
2018-10-03T01:12:14.400Z,76.86
2018-10-03T01:13:14.322Z,76.76
2018-10-03T01:14:14.209Z,76.86
2018-10-03T01:15:14.111Z,76.76
2018-10-03T01:16:14.014Z,76.76
2018-10-03T01:17:13.917Z,76.76
2018-10-03T01:18:13.839Z,76.57
2018-10-03T01:19:13.727Z,76.76
2018-10-03T01:20:13.623Z,76.96
2018-10-03T01:21:13.527Z,76.76
2018-10-03T01:22:13.437Z,76.57
2018-10-03T01:23:13.349Z,76.67
2018-10-03T01:24:13.237Z,76.67
2018-10-03T01:25:13.141Z,77.24
2018-10-03T01:26:13.044Z,76.67
2018-10-03T01:27:12.948Z,76.67
2018-10-03T01:28:12.867Z,77.34
2018-10-03T01:29:12.753Z,76.67
2018-10-03T01:30:12.658Z,77.34
2018-10-03T01:31:12.556Z,76.86
2018-10-03T01:32:12.463Z,76.67
2018-10-03T01:33:12.380Z,76.86
2018-10-03T01:34:12.269Z,76.76
2018-10-03T01:35:12.169Z,76.67
2018-10-03T01:36:12.078Z,77.24
2018-10-03T01:37:11.976Z,77.34
2018-10-03T01:38:11.922Z,76.76
2018-10-03T01:39:11.788Z,77.43
2018-10-03T01:40:11.688Z,76.86
2018-10-03T01:41:11.591Z,76.96
2018-10-03T01:42:11.495Z,77.34
2018-10-03T01:43:11.408Z,77.34
2018-10-03T01:44:11.298Z,76.86
2018-10-03T01:45:11.204Z,77.24
2018-10-03T01:46:11.104Z,76.86
2018-10-03T01:47:11.005Z,77.53
2018-10-03T01:48:10.929Z,76.67
2018-10-03T01:49:10.815Z,77.24
2018-10-03T01:50:10.716Z,77.24
2018-10-03T01:51:10.617Z,77.24
2018-10-03T01:52:10.521Z,77.53
2018-10-03T01:53:10.544Z,77.53
2018-10-03T01:54:10.329Z,76.76
2018-10-03T01:55:10.230Z,77.34
2018-10-03T01:56:10.138Z,77.53
2018-10-03T01:57:10.035Z,77.24
2018-10-03T01:58:09.960Z,77.24
2018-10-03T01:59:09.851Z,77.43
2018-10-03T02:00:09.844Z,76.67
2018-10-03T02:01:09.649Z,77.24
2018-10-03T02:02:09.554Z,76.86
2018-10-03T02:03:09.474Z,76.67
2018-10-03T02:04:09.362Z,77.43
2018-10-03T02:05:09.263Z,77.34
2018-10-03T02:06:09.163Z,76.86
2018-10-03T02:07:09.165Z,77.53
2018-10-03T02:08:08.972Z,76.67
2018-10-03T02:09:08.894Z,76.57
2018-10-03T02:10:08.780Z,76.71
2018-10-03T02:11:08.679Z,76.76
2018-10-03T02:12:08.585Z,76.96
2018-10-03T02:13:08.487Z,76.67
2018-10-03T02:14:08.511Z,77.24
2018-10-03T02:15:08.294Z,76.86
2018-10-03T02:16:08.198Z,76.67
2018-10-03T02:17:08.101Z,77.24
2018-10-03T02:18:08.006Z,76.96
2018-10-03T02:19:07.923Z,76.76
2018-10-03T02:20:07.810Z,76.86
2018-10-03T02:21:07.820Z,76.76
2018-10-03T02:22:07.615Z,76.86
2018-10-03T02:23:07.521Z,76.96
2018-10-03T02:24:07.444Z,76.86
2018-10-03T02:25:07.384Z,76.76
2018-10-03T02:26:07.226Z,76.96
2018-10-03T02:27:07.175Z,76.76
2018-10-03T02:28:07.141Z,76.96
2018-10-03T02:29:06.953Z,76.96
2018-10-03T02:30:06.909Z,76.96
2018-10-03T02:31:06.746Z,76.76
2018-10-03T02:32:06.649Z,76.96
2018-10-03T02:33:06.551Z,77.00
2018-10-03T02:34:06.472Z,77.00
2018-10-03T02:35:06.456Z,76.96
2018-10-03T02:36:06.258Z,76.90
2018-10-03T02:37:06.163Z,76.90
2018-10-03T02:38:06.069Z,77.19
2018-10-03T02:39:05.984Z,77.19
2018-10-03T02:40:05.876Z,77.00
2018-10-03T02:41:05.782Z,77.19
2018-10-03T02:42:05.788Z,76.90
2018-10-03T02:43:05.584Z,77.19
2018-10-03T02:44:05.501Z,77.15
2018-10-03T02:45:05.392Z,76.67
2018-10-03T02:46:05.294Z,77.00
2018-10-03T02:47:05.207Z,77.00
2018-10-03T02:48:05.101Z,77.15
2018-10-03T02:49:05.123Z,77.09
2018-10-03T02:50:04.910Z,77.15
2018-10-03T02:51:04.810Z,77.19
2018-10-03T02:52:04.716Z,76.33
2018-10-03T02:53:04.615Z,76.71
2018-10-03T02:54:04.539Z,76.81
2018-10-03T02:55:04.424Z,76.42
2018-10-03T02:56:04.426Z,76.90
2018-10-03T02:57:04.229Z,76.81
2018-10-03T02:58:04.187Z,76.33
2018-10-03T02:59:04.058Z,76.42
2018-10-03T03:00:03.938Z,76.81
2018-10-03T03:01:03.843Z,76.81
2018-10-03T03:02:03.749Z,76.61
2018-10-03T03:03:03.654Z,76.42
2018-10-03T03:04:03.567Z,76.61
2018-10-03T03:05:03.455Z,77.00
2018-10-03T03:06:03.363Z,76.81
2018-10-03T03:07:03.263Z,77.00
2018-10-03T03:08:03.166Z,76.81
2018-10-03T03:09:03.180Z,77.19
2018-10-03T03:10:02.974Z,76.81
2018-10-03T03:11:02.878Z,76.81
2018-10-03T03:12:02.782Z,76.61
2018-10-03T03:13:02.687Z,76.42
2018-10-03T03:14:02.600Z,76.81
2018-10-03T03:15:02.492Z,76.90
2018-10-03T03:16:02.397Z,76.71
2018-10-03T03:17:02.298Z,76.33
2018-10-03T03:18:02.200Z,76.42
2018-10-03T03:19:02.119Z,76.90
2018-10-03T03:20:02.011Z,76.42
2018-10-03T03:21:01.914Z,77.00
2018-10-03T03:22:01.817Z,77.19
2018-10-03T03:23:01.720Z,76.33
2018-10-03T03:24:01.642Z,76.42
2018-10-03T03:25:01.528Z,76.90
2018-10-03T03:26:01.426Z,76.42
2018-10-03T03:27:01.332Z,76.33
2018-10-03T03:28:01.236Z,76.81
2018-10-03T03:29:01.153Z,77.19
2018-10-03T03:30:01.043Z,76.42
2018-10-03T03:31:00.943Z,77.09
2018-10-03T03:32:00.849Z,76.81
2018-10-03T03:33:00.756Z,76.90
2018-10-03T03:34:00.669Z,77.00
2018-10-03T03:35:00.558Z,77.09
2018-10-03T03:36:00.460Z,77.19
2018-10-03T03:37:00.366Z,77.00
2018-10-03T03:38:00.267Z,77.00
2018-10-03T03:39:00.192Z,77.00
2018-10-03T03:40:00.078Z,77.00
2018-10-03T03:40:59.982Z,76.90
2018-10-03T03:41:59.884Z,77.00
2018-10-03T03:42:59.782Z,77.00
2018-10-03T03:43:59.706Z,77.00
2018-10-03T03:44:59.590Z,77.00
2018-10-03T03:45:59.496Z,76.90
2018-10-03T03:46:59.402Z,77.00
2018-10-03T03:47:59.301Z,77.19
2018-10-03T03:48:59.224Z,77.00
2018-10-03T03:49:59.110Z,76.81
2018-10-03T03:50:59.016Z,76.90
2018-10-03T03:51:58.919Z,77.00
2018-10-03T03:52:58.824Z,76.90
2018-10-03T03:53:58.731Z,77.00
2018-10-03T03:54:58.644Z,77.09
2018-10-03T03:55:58.528Z,77.00
2018-10-03T03:56:58.433Z,77.00
2018-10-03T03:57:58.338Z,76.90
2018-10-03T03:58:58.244Z,76.90
2018-10-03T03:59:58.163Z,76.81
2018-10-03T04:00:58.051Z,76.90
2018-10-03T04:01:57.953Z,77.00
2018-10-03T04:02:57.853Z,77.00
2018-10-03T04:03:57.760Z,77.00
2018-10-03T04:04:57.679Z,77.00
2018-10-03T04:05:57.567Z,76.90
2018-10-03T04:06:57.467Z,76.81
2018-10-03T04:07:57.374Z,77.00
2018-10-03T04:08:57.285Z,76.81
2018-10-03T04:09:57.198Z,77.00
2018-10-03T04:10:57.085Z,76.81
2018-10-03T04:11:56.986Z,76.61
2018-10-03T04:12:56.894Z,76.81
2018-10-03T04:13:56.801Z,76.81
2018-10-03T04:14:56.714Z,76.90
2018-10-03T04:15:56.610Z,76.81
2018-10-03T04:16:56.507Z,76.81
2018-10-03T04:17:56.414Z,76.61
2018-10-03T04:18:56.314Z,77.00
2018-10-03T04:19:56.233Z,76.90
2018-10-03T04:20:56.124Z,76.90
2018-10-03T04:21:56.022Z,76.61
2018-10-03T04:22:55.926Z,76.81
2018-10-03T04:23:55.830Z,77.00
2018-10-03T04:24:55.757Z,76.61
2018-10-03T04:25:55.735Z,76.71
2018-10-03T04:26:55.542Z,76.90
2018-10-03T04:27:55.447Z,77.56
2018-10-03T04:28:55.350Z,76.71
2018-10-03T04:29:55.263Z,77.56
2018-10-03T04:30:55.155Z,77.19
2018-10-03T04:31:55.055Z,77.56
2018-10-03T04:32:54.961Z,77.66
2018-10-03T04:33:54.867Z,77.37
2018-10-03T04:34:54.784Z,77.28
2018-10-03T04:35:54.675Z,77.28
2018-10-03T04:36:54.572Z,77.19
2018-10-03T04:37:54.482Z,77.19
2018-10-03T04:38:54.379Z,77.47
2018-10-03T04:39:54.402Z,77.28
2018-10-03T04:40:54.188Z,77.37
2018-10-03T04:41:54.097Z,77.28
2018-10-03T04:42:53.993Z,77.28
2018-10-03T04:43:53.902Z,77.37
2018-10-03T04:44:53.817Z,77.37
2018-10-03T04:45:53.706Z,77.37
2018-10-03T04:46:53.712Z,77.37
2018-10-03T04:47:53.513Z,77.37
2018-10-03T04:48:53.452Z,77.37
2018-10-03T04:49:53.331Z,77.28
2018-10-03T04:50:53.221Z,77.19
2018-10-03T04:51:53.122Z,77.47
2018-10-03T04:52:53.026Z,77.37
2018-10-03T04:53:53.050Z,77.56
2018-10-03T04:54:52.856Z,77.47
2018-10-03T04:55:52.741Z,77.28
2018-10-03T04:56:52.646Z,77.37
2018-10-03T04:57:52.547Z,77.37
2018-10-03T04:58:52.449Z,77.09
2018-10-03T04:59:52.369Z,77.47
2018-10-03T05:00:52.362Z,77.28
2018-10-03T05:01:52.160Z,77.19
2018-10-03T05:02:52.061Z,77.28
2018-10-03T05:03:51.965Z,77.47
2018-10-03T05:04:51.886Z,77.37
2018-10-03T05:05:51.771Z,77.28
2018-10-03T05:06:51.675Z,77.19
2018-10-03T05:07:51.580Z,77.28
2018-10-03T05:08:51.484Z,77.19
2018-10-03T05:09:51.398Z,77.28
2018-10-03T05:10:51.288Z,77.28
2018-10-03T05:11:51.192Z,77.19
2018-10-03T05:12:51.093Z,77.09
2018-10-03T05:13:51.014Z,77.19
2018-10-03T05:14:50.922Z,77.09
2018-10-03T05:15:50.805Z,77.19
2018-10-03T05:16:50.712Z,77.09
2018-10-03T05:17:50.612Z,77.19
2018-10-03T05:18:50.514Z,77.19
2018-10-03T05:19:50.436Z,77.28
2018-10-03T05:20:50.322Z,77.09
2018-10-03T05:21:50.228Z,77.28
2018-10-03T05:22:50.134Z,77.19
2018-10-03T05:23:50.031Z,77.37
2018-10-03T05:24:49.952Z,77.56
2018-10-03T05:25:49.840Z,77.47
2018-10-03T05:26:49.749Z,77.47
2018-10-03T05:27:49.707Z,76.81
2018-10-03T05:28:49.551Z,77.00
2018-10-03T05:29:49.469Z,76.81
2018-10-03T05:30:49.359Z,76.71
2018-10-03T05:31:49.262Z,76.71
2018-10-03T05:32:49.163Z,76.61
2018-10-03T05:33:49.067Z,75.95
2018-10-03T05:34:48.986Z,75.28
2018-10-03T05:35:48.874Z,75.43
2018-10-03T05:36:49.078Z,74.67
2018-10-03T05:37:48.684Z,74.10
2018-10-03T05:38:48.588Z,74.10
2018-10-03T05:39:48.606Z,74.01
2018-10-03T05:40:48.391Z,74.39
2018-10-03T05:41:48.294Z,74.39
2018-10-03T05:42:48.201Z,74.01
2018-10-03T05:43:48.212Z,74.01
2018-10-03T05:44:48.011Z,74.10
2018-10-03T05:45:47.926Z,74.10
2018-10-03T05:46:47.812Z,73.91
2018-10-03T05:47:47.716Z,74.29
2018-10-03T05:48:47.677Z,74.39
2018-10-03T05:49:47.524Z,74.20
2018-10-03T05:50:47.544Z,74.01
2018-10-03T05:51:47.328Z,73.91
2018-10-03T05:52:47.228Z,74.29
2018-10-03T05:53:47.130Z,73.78
2018-10-03T05:54:47.042Z,74.35
2018-10-03T05:55:46.955Z,74.26
2018-10-03T05:56:46.840Z,74.10
2018-10-03T05:57:46.850Z,74.01
2018-10-03T05:58:46.647Z,74.26
2018-10-03T05:59:46.553Z,74.26
2018-10-03T06:00:46.470Z,73.49
2018-10-03T06:01:46.358Z,74.10
2018-10-03T06:02:46.309Z,73.97
2018-10-03T06:03:46.283Z,74.16
2018-10-03T06:04:46.065Z,74.39
2018-10-03T06:05:45.985Z,74.26
2018-10-03T06:06:45.867Z,73.97
2018-10-03T06:07:45.771Z,74.58
2018-10-03T06:08:45.674Z,74.10
2018-10-03T06:09:45.577Z,74.10
2018-10-03T06:10:45.497Z,74.01
2018-10-03T06:11:45.389Z,74.10
2018-10-03T06:12:45.284Z,73.91
2018-10-03T06:13:45.189Z,74.77
2018-10-03T06:14:45.094Z,74.87
2018-10-03T06:15:45.011Z,74.77
2018-10-03T06:16:44.899Z,74.58
2018-10-03T06:17:44.799Z,74.77
2018-10-03T06:18:44.811Z,74.39
2018-10-03T06:19:44.613Z,75.62
2018-10-03T06:20:44.526Z,75.81
2018-10-03T06:21:44.420Z,75.34
2018-10-03T06:22:44.318Z,75.34
2018-10-03T06:23:44.227Z,74.96
2018-10-03T06:24:44.129Z,75.43
2018-10-03T06:25:44.054Z,75.43
2018-10-03T06:26:43.930Z,75.24
2018-10-03T06:27:43.853Z,75.24
2018-10-03T06:28:43.739Z,75.81
2018-10-03T06:29:43.654Z,75.43
2018-10-03T06:30:43.565Z,75.72
2018-10-03T06:31:43.453Z,75.91
2018-10-03T06:32:43.352Z,75.91
2018-10-03T06:33:43.255Z,76.76
2018-10-03T06:34:43.161Z,76.86
2018-10-03T06:35:43.079Z,77.53
2018-10-03T06:36:42.968Z,77.24
2018-10-03T06:37:42.870Z,76.67
2018-10-03T06:38:42.772Z,77.34
2018-10-03T06:39:42.673Z,77.15
2018-10-03T06:40:42.594Z,78.00
2018-10-03T06:41:42.484Z,77.91
2018-10-03T06:42:42.386Z,77.72
2018-10-03T06:43:42.288Z,78.10
2018-10-03T06:44:42.191Z,78.86
2018-10-03T06:45:42.243Z,78.77
2018-10-03T06:46:42.001Z,78.86
2018-10-03T06:47:41.904Z,78.96
2018-10-03T06:48:41.808Z,79.24
2018-10-03T06:49:41.713Z,78.96
2018-10-03T06:50:41.629Z,78.86
2018-10-03T06:51:41.516Z,79.52
2018-10-03T06:52:41.419Z,78.99
2018-10-03T06:53:41.327Z,78.42
2018-10-03T06:54:41.232Z,78.61
2018-10-03T06:55:41.148Z,78.61
2018-10-03T06:56:41.035Z,79.57
2018-10-03T06:57:40.939Z,79.19
2018-10-03T06:58:40.844Z,79.66
2018-10-03T06:59:40.750Z,80.80
2018-10-03T07:00:40.668Z,80.99
2018-10-03T07:01:40.553Z,80.52
2018-10-03T07:02:40.458Z,81.18
2018-10-03T07:03:40.363Z,81.76
2018-10-03T07:04:40.267Z,82.04
2018-10-03T07:05:40.195Z,82.32
2018-10-03T07:06:40.075Z,82.61
2018-10-03T07:07:39.979Z,84.56
2018-10-03T07:08:39.895Z,85.22
2018-10-03T07:09:39.785Z,86.27
2018-10-03T07:10:39.707Z,86.27
2018-10-03T07:11:39.594Z,86.55
2018-10-03T07:12:39.504Z,86.55
2018-10-03T07:13:39.405Z,87.51
2018-10-03T07:14:39.308Z,87.70
2018-10-03T07:15:39.231Z,87.32
2018-10-03T07:16:39.115Z,88.37
2018-10-03T07:17:39.022Z,91.84
2018-10-03T07:18:38.927Z,96.32
2018-10-03T07:19:38.831Z,94.89
2018-10-03T07:20:38.855Z,96.41
2018-10-03T07:21:38.643Z,96.89
2018-10-03T07:22:38.547Z,94.98
2018-10-03T07:23:38.454Z,95.17
2018-10-03T07:24:38.354Z,96.22
2018-10-03T07:25:38.262Z,95.12
2018-10-03T07:26:38.180Z,95.22
2018-10-03T07:27:38.171Z,95.51
2018-10-03T07:28:37.974Z,95.60
2018-10-03T07:29:37.881Z,95.32
2018-10-03T07:30:37.786Z,95.60
2018-10-03T07:31:37.705Z,95.41
2018-10-03T07:32:37.669Z,95.51
2018-10-03T07:33:37.501Z,95.12
2018-10-03T07:34:37.511Z,95.32
2018-10-03T07:35:37.313Z,96.17
2018-10-03T07:36:37.233Z,95.98
2018-10-03T07:37:37.118Z,96.17
2018-10-03T07:38:37.027Z,96.27
2018-10-03T07:39:36.930Z,95.41
2018-10-03T07:40:36.842Z,96.17
2018-10-03T07:41:36.858Z,96.27
2018-10-03T07:42:36.642Z,95.17
2018-10-03T07:43:36.550Z,95.22
2018-10-03T07:44:36.456Z,96.98
2018-10-03T07:45:36.362Z,96.60
2018-10-03T07:46:36.278Z,97.36
2018-10-03T07:47:36.170Z,96.32
2018-10-03T07:48:36.191Z,96.70
2018-10-03T07:49:35.977Z,97.94
2018-10-03T07:50:35.884Z,98.03
2018-10-03T07:51:35.804Z,97.46
2018-10-03T07:52:35.696Z,98.70
2018-10-03T07:53:35.646Z,98.32
2018-10-03T07:54:35.504Z,99.89
2018-10-03T07:55:35.515Z,99.99
2018-10-03T07:56:35.330Z,99.99
2018-10-03T07:57:35.231Z,99.99
2018-10-03T07:58:35.125Z,99.99
2018-10-03T07:59:35.031Z,99.99
2018-10-03T08:00:34.953Z,99.99
2018-10-03T08:01:34.864Z,99.99
2018-10-03T08:02:34.849Z,99.99
2018-10-03T08:03:34.650Z,99.99
2018-10-03T08:04:34.558Z,99.99
2018-10-03T08:05:34.462Z,99.99
2018-10-03T08:06:34.388Z,99.99
2018-10-03T08:07:34.278Z,99.99
2018-10-03T08:08:34.185Z,99.99
2018-10-03T08:09:34.259Z,99.99
2018-10-03T08:10:33.999Z,99.99
2018-10-03T08:11:33.920Z,99.99
2018-10-03T08:12:33.809Z,99.99
2018-10-03T08:13:33.720Z,99.99
2018-10-03T08:14:33.621Z,99.99
2018-10-03T08:15:33.529Z,99.99
2018-10-03T08:16:33.558Z,99.99
2018-10-03T08:17:33.342Z,99.99
2018-10-03T08:18:33.251Z,99.99
2018-10-03T08:19:33.155Z,99.99
2018-10-03T08:20:33.072Z,99.99
2018-10-03T08:21:32.986Z,99.99
2018-10-03T08:22:32.884Z,99.99
2018-10-03T08:23:32.891Z,99.99
2018-10-03T08:24:32.716Z,99.99
2018-10-03T08:25:32.603Z,99.99
2018-10-03T08:26:32.528Z,99.99
2018-10-03T08:27:32.419Z,99.99
2018-10-03T08:28:32.325Z,99.99
2018-10-03T08:29:32.234Z,99.38
2018-10-03T08:30:32.243Z,99.99
2018-10-03T08:31:32.070Z,99.99
2018-10-03T08:32:32.141Z,99.99
2018-10-03T08:33:31.868Z,99.99
2018-10-03T08:34:31.779Z,99.99
2018-10-03T08:35:31.690Z,99.99
2018-10-03T08:36:31.610Z,99.99
2018-10-03T08:37:31.499Z,99.99
2018-10-03T08:38:31.427Z,99.99
2018-10-03T08:39:31.319Z,99.99
2018-10-03T08:40:31.224Z,99.99
2018-10-03T08:41:31.156Z,99.99
2018-10-03T08:42:31.045Z,99.99
2018-10-03T08:43:30.946Z,99.99
2018-10-03T08:44:30.857Z,99.99
2018-10-03T08:45:30.839Z,99.99
2018-10-03T08:46:30.687Z,99.99
2018-10-03T08:47:30.580Z,99.99
2018-10-03T08:48:30.483Z,99.99
2018-10-03T08:49:30.396Z,99.99
2018-10-03T08:50:30.304Z,99.99
2018-10-03T08:51:30.224Z,99.28
2018-10-03T08:52:30.115Z,99.99
2018-10-03T08:53:30.021Z,99.99
2018-10-03T08:54:29.929Z,99.99
2018-10-03T08:55:29.837Z,99.99
2018-10-03T08:56:29.763Z,99.99
2018-10-03T08:57:29.652Z,99.99
2018-10-03T08:58:29.754Z,99.99
2018-10-03T08:59:29.464Z,99.99
2018-10-03T09:00:29.373Z,99.95
2018-10-03T09:01:29.295Z,99.56
2018-10-03T09:02:29.185Z,98.99
2018-10-03T09:03:29.095Z,97.75
2018-10-03T09:04:29.001Z,97.51
2018-10-03T09:05:28.910Z,99.04
2018-10-03T09:06:28.834Z,98.47
2018-10-03T09:07:28.728Z,99.52
2018-10-03T09:08:28.628Z,99.71
2018-10-03T09:09:28.576Z,98.47
2018-10-03T09:10:28.455Z,98.70
2018-10-03T09:11:28.352Z,97.08
2018-10-03T09:12:28.272Z,98.03
2018-10-03T09:13:28.463Z,97.85
2018-10-03T09:14:28.071Z,97.56
2018-10-03T09:15:27.972Z,97.56
2018-10-03T09:16:27.897Z,97.37
2018-10-03T09:17:27.785Z,97.17
2018-10-03T09:18:27.688Z,97.85
2018-10-03T09:19:27.597Z,98.61
2018-10-03T09:20:27.504Z,97.56
2018-10-03T09:21:27.467Z,98.61
2018-10-03T09:22:27.329Z,96.94
2018-10-03T09:23:27.225Z,95.79
2018-10-03T09:24:27.128Z,95.32
2018-10-03T09:25:27.049Z,94.56
2018-10-03T09:26:26.945Z,95.51
2018-10-03T09:27:26.862Z,94.84
2018-10-03T09:28:26.816Z,94.93
2018-10-03T09:29:26.662Z,95.89
2018-10-03T09:30:26.570Z,95.84
2018-10-03T09:31:26.475Z,94.89
2018-10-03T09:32:26.402Z,94.89
2018-10-03T09:33:26.381Z,95.94
2018-10-03T09:34:26.193Z,95.61
2018-10-03T09:35:26.103Z,96.13
2018-10-03T09:36:26.017Z,95.12
2018-10-03T09:37:25.928Z,95.84
2018-10-03T09:38:25.820Z,95.17
2018-10-03T09:39:25.778Z,95.36
2018-10-03T09:40:25.737Z,95.46
2018-10-03T09:41:25.539Z,95.65
2018-10-03T09:42:25.461Z,96.27
2018-10-03T09:43:25.353Z,96.98
2018-10-03T09:44:25.317Z,96.70
2018-10-03T09:45:25.168Z,98.03
2018-10-03T09:46:25.069Z,99.18
2018-10-03T09:47:25.101Z,97.66
2018-10-03T09:48:24.886Z,98.23
2018-10-03T09:49:24.796Z,98.32
2018-10-03T09:50:24.700Z,97.94
2018-10-03T09:51:24.607Z,98.52
2018-10-03T09:52:24.534Z,98.56
2018-10-03T09:53:24.421Z,99.13
2018-10-03T09:54:24.444Z,98.56
2018-10-03T09:55:24.231Z,99.23
2018-10-03T09:56:24.138Z,99.52
2018-10-03T09:57:24.071Z,99.61
2018-10-03T09:58:23.953Z,99.99
2018-10-03T09:59:23.861Z,99.99
2018-10-03T10:00:23.825Z,99.99
2018-10-03T10:01:23.773Z,99.99
2018-10-03T10:02:23.598Z,99.99
2018-10-03T10:03:23.487Z,99.37
2018-10-03T10:04:23.390Z,99.99
2018-10-03T10:05:23.302Z,99.90
2018-10-03T10:06:23.205Z,99.99
2018-10-03T10:07:23.126Z,99.99
2018-10-03T10:08:23.025Z,99.99
2018-10-03T10:09:22.926Z,99.99
2018-10-03T10:10:22.894Z,99.99
2018-10-03T10:11:22.856Z,99.99
2018-10-03T10:12:22.659Z,99.99
2018-10-03T10:13:22.552Z,99.99
2018-10-03T10:14:22.458Z,99.99
2018-10-03T10:15:22.369Z,99.99
2018-10-03T10:16:22.268Z,99.99
2018-10-03T10:17:22.192Z,99.99
2018-10-03T10:18:22.137Z,99.99
2018-10-03T10:19:21.988Z,99.99
2018-10-03T10:20:21.931Z,99.99
2018-10-03T10:21:21.801Z,99.99
2018-10-03T10:22:21.727Z,99.99
2018-10-03T10:23:21.611Z,99.99
2018-10-03T10:24:21.525Z,99.99
2018-10-03T10:25:21.426Z,99.99
2018-10-03T10:26:21.329Z,99.62
2018-10-03T10:27:21.252Z,98.85
2018-10-03T10:28:21.143Z,99.08
2018-10-03T10:29:21.049Z,99.66
2018-10-03T10:30:20.959Z,99.28
2018-10-03T10:31:20.860Z,99.99
2018-10-03T10:32:20.893Z,99.99
2018-10-03T10:33:20.687Z,99.99
2018-10-03T10:34:20.582Z,99.99
2018-10-03T10:35:20.491Z,99.99
2018-10-03T10:36:20.395Z,99.99
2018-10-03T10:37:20.322Z,99.99
2018-10-03T10:38:20.207Z,99.99
2018-10-03T10:39:20.114Z,99.99
2018-10-03T10:40:20.116Z,99.99
2018-10-03T10:41:20.051Z,99.99
2018-10-03T10:42:19.849Z,99.99
2018-10-03T10:43:19.775Z,99.99
2018-10-03T10:44:19.647Z,99.99
2018-10-03T10:45:19.557Z,99.99
2018-10-03T10:46:19.457Z,99.99
2018-10-03T10:47:19.379Z,99.99
2018-10-03T10:48:19.267Z,99.99
2018-10-03T10:49:19.176Z,99.99
2018-10-03T10:50:19.170Z,99.99
2018-10-03T10:51:18.986Z,99.66
2018-10-03T10:52:18.907Z,98.13
2018-10-03T10:53:18.798Z,98.33
2018-10-03T10:54:18.703Z,98.57
2018-10-03T10:55:18.609Z,98.85
2018-10-03T10:56:18.521Z,98.47
2018-10-03T10:57:18.427Z,99.18
2018-10-03T10:58:18.345Z,98.52
2018-10-03T10:59:18.238Z,98.80
2018-10-03T11:00:18.165Z,98.90
2018-10-03T11:01:18.053Z,99.18
2018-10-03T11:02:17.977Z,99.42
2018-10-03T11:03:17.863Z,99.52
2018-10-03T11:04:17.776Z,99.99
2018-10-03T11:05:17.679Z,99.99
2018-10-03T11:06:17.641Z,99.99
2018-10-03T11:07:17.491Z,99.99
2018-10-03T11:08:17.414Z,99.99
2018-10-03T11:09:17.302Z,99.99
2018-10-03T11:10:17.211Z,99.90
2018-10-03T11:11:17.118Z,98.66
2018-10-03T11:12:17.022Z,98.28
2018-10-03T11:13:16.944Z,99.04
2018-10-03T11:14:16.832Z,99.04
2018-10-03T11:15:16.739Z,97.66
2018-10-03T11:16:16.647Z,97.28
2018-10-03T11:17:16.555Z,98.08
2018-10-03T11:18:16.475Z,97.94
2018-10-03T11:19:16.370Z,98.99
2018-10-03T11:20:16.278Z,98.08
2018-10-03T11:21:16.185Z,97.04
2018-10-03T11:22:16.090Z,94.84
2018-10-03T11:23:16.022Z,95.17
2018-10-03T11:24:15.996Z,96.42
2018-10-03T11:25:15.816Z,96.84
2018-10-03T11:26:15.718Z,96.56
2018-10-03T11:27:15.631Z,96.51
2018-10-03T11:28:15.548Z,92.50
2018-10-03T11:29:15.442Z,89.39
2018-10-03T11:30:15.346Z,89.39
2018-10-03T11:31:15.257Z,87.90
2018-10-03T11:32:15.301Z,88.19
2018-10-03T11:33:15.087Z,88.43
2018-10-03T11:34:14.978Z,89.43
2018-10-03T11:35:14.884Z,90.16
2018-10-03T11:36:14.795Z,90.06
2018-10-03T11:37:14.699Z,87.66
2018-10-03T11:38:14.638Z,86.04
2018-10-03T11:39:14.619Z,86.85
2018-10-03T11:40:14.423Z,85.17
2018-10-03T11:41:14.334Z,84.26
2018-10-03T11:42:14.240Z,82.86
2018-10-03T11:43:14.169Z,82.19
2018-10-03T11:44:14.060Z,81.67
2018-10-03T11:45:13.969Z,82.00
2018-10-03T11:46:13.875Z,81.52
2018-10-03T11:47:13.788Z,80.85
2018-10-03T11:48:13.711Z,80.89
2018-10-03T11:49:13.609Z,81.96
2018-10-03T11:50:13.517Z,80.56
2018-10-03T11:51:13.422Z,81.71
2018-10-03T11:52:13.333Z,80.85
2018-10-03T11:53:13.364Z,80.41
2018-10-03T11:54:13.155Z,78.17
2018-10-03T11:55:13.063Z,79.11
2018-10-03T11:56:12.978Z,78.69
2018-10-03T11:57:12.978Z,78.59
2018-10-03T11:58:12.810Z,78.05
2018-10-03T11:59:12.708Z,76.42
2018-10-03T12:00:12.721Z,75.50
2018-10-03T12:01:12.528Z,73.68
2018-10-03T12:02:12.440Z,75.50
2018-10-03T12:03:12.382Z,73.10
2018-10-03T12:04:12.261Z,72.53
2018-10-03T12:05:12.173Z,73.77
2018-10-03T12:06:12.084Z,75.54
2018-10-03T12:07:11.996Z,73.87
2018-10-03T12:08:11.921Z,72.68
2018-10-03T12:09:11.820Z,72.59
2018-10-03T12:10:11.727Z,73.35
2018-10-03T12:11:11.639Z,74.18
2018-10-03T12:12:11.550Z,74.12
2018-10-03T12:13:11.590Z,75.23
2018-10-03T12:14:11.373Z,73.28
2018-10-03T12:15:11.290Z,75.70
2018-10-03T12:16:11.198Z,75.70
2018-10-03T12:17:11.109Z,76.79
2018-10-03T12:18:11.037Z,77.04
2018-10-03T12:19:10.930Z,76.98
2018-10-03T12:20:10.950Z,75.20
2018-10-03T12:21:10.753Z,75.93
2018-10-03T12:22:10.664Z,77.23
2018-10-03T12:23:10.606Z,77.13
2018-10-03T12:24:10.489Z,77.76
2018-10-03T12:25:10.437Z,79.20
2018-10-03T12:26:10.310Z,80.02
2018-10-03T12:27:10.222Z,80.50
2018-10-03T12:28:10.144Z,81.07
2018-10-03T12:29:10.041Z,81.26
2018-10-03T12:30:09.948Z,81.45
2018-10-03T12:31:09.860Z,81.68
2018-10-03T12:32:09.773Z,79.37
2018-10-03T12:33:09.726Z,78.84
2018-10-03T12:34:09.595Z,76.92
2018-10-03T12:35:09.500Z,74.57
2018-10-03T12:36:09.408Z,74.66
2018-10-03T12:37:09.322Z,73.61
2018-10-03T12:38:09.245Z,72.32
2018-10-03T12:39:09.144Z,71.46
2018-10-03T12:40:09.049Z,73.44
2018-10-03T12:41:08.960Z,73.91
2018-10-03T12:42:08.869Z,73.54
2018-10-03T12:43:08.801Z,74.62
2018-10-03T12:44:08.693Z,74.52
2018-10-03T12:45:08.647Z,74.08
2018-10-03T12:46:08.513Z,73.41
2018-10-03T12:47:08.424Z,73.66
2018-10-03T12:48:08.335Z,74.37
2018-10-03T12:49:08.260Z,74.43
2018-10-03T12:50:08.159Z,74.72
2018-10-03T12:51:08.065Z,76.02